Time;durP1;ratioP1;P1;durP2;ratioP2;P2;SDS_P1;SDS_P2;PMS_P1;PMS_P2;Temp;Humidity;BMP_temperature;BMP_pressure;BME280_temperature;BME280_humidity;BME280_pressure;Samples;Min_cycle;Max_cycle;Signal;HPM_P1;HPM_P2
2023/04/12 00:01:02;;;;;;;;;;;;;;;8.31;75.87;99759.02;102762;276;106003;-59
2023/04/12 00:03:41;;;;;;;21.50;15.90;;;;;;;8.23;76.18;99757.84;102709;276;115239;-58
2023/04/12 00:06:31;;;;;;;18.00;14.90;;;;;;;8.21;76.24;99754.33;102747;277;96310;-56
2023/04/12 00:09:08;;;;;;;19.00;15.20;;;;;;;8.18;76.05;99747.95;102687;277;98367;-55
2023/04/12 00:11:46;;;;;;;18.60;15.10;;;;;;;8.11;76.24;99753.86;102727;277;120799;-61
2023/04/12 00:14:26;;;;;;;17.00;14.70;;;;;;;8.03;76.23;99755.77;102743;277;106109;-61
2023/04/12 00:17:05;;;;;;;17.10;14.20;;;;;;;8.00;76.37;99746.83;102747;277;113131;-59
2023/04/12 00:19:53;;;;;;;16.30;13.50;;;;;;;7.95;76.51;99739.77;102672;277;96715;-59
2023/04/12 00:22:32;;;;;;;17.30;12.80;;;;;;;7.88;76.90;99744.33;102745;277;97364;-60
2023/04/12 00:25:11;;;;;;;15.30;12.00;;;;;;;7.87;76.76;99750.55;102718;277;121102;-61
2023/04/12 00:27:49;;;;;;;15.80;11.90;;;;;;;7.91;76.92;99753.42;102758;277;103914;-59
2023/04/12 00:30:31;;;;;;;14.30;12.20;;;;;;;7.97;77.04;99758.30;102766;277;114248;-56
2023/04/12 00:33:12;;;;;;;17.20;12.20;;;;;;;8.05;76.96;99757.95;102731;277;94026;-56
2023/04/12 00:35:54;;;;;;;14.90;12.20;;;;;;;8.14;77.08;99759.58;102748;276;97294;-60
2023/04/12 00:38:29;;;;;;;15.80;12.00;;;;;;;8.21;77.01;99757.09;102679;277;120546;-58
2023/04/12 00:41:07;;;;;;;11.20;9.80;;;;;;;8.29;76.99;99759.52;102765;277;105550;-59
2023/04/12 00:43:43;;;;;;;15.60;11.50;;;;;;;8.35;76.96;99756.46;102722;277;114420;-59
2023/04/12 00:46:21;;;;;;;14.20;11.30;;;;;;;8.38;76.94;99755.95;102761;277;94652;-56
2023/04/12 00:49:08;;;;;;;15.20;12.50;;;;;;;8.37;76.97;99745.83;102740;277;98346;-56
2023/04/12 00:51:46;;;;;;;17.10;13.00;;;;;;;8.38;76.85;99737.31;102749;277;120383;-59
2023/04/12 00:54:28;;;;;;;17.20;13.40;;;;;;;8.37;76.94;99730.52;102745;277;104576;-59
2023/04/12 00:57:06;;;;;;;16.50;12.80;;;;;;;8.38;77.03;99724.61;102729;277;113119;-61
2023/04/12 00:59:48;;;;;;;16.50;12.30;;;;;;;8.33;77.25;99721.52;102683;277;97276;-61
2023/04/12 01:02:29;;;;;;;15.50;13.20;;;;;;;8.35;77.10;99716.08;102755;277;98033;-58
2023/04/12 01:05:07;;;;;;;17.00;13.30;;;;;;;8.42;76.99;99718.77;102731;276;120411;-57
2023/04/12 01:07:59;;;;;;;17.60;13.00;;;;;;;8.46;77.03;99717.14;102735;277;105969;-57
2023/04/12 01:10:46;;;;;;;17.40;14.20;;;;;;;8.46;77.13;99716.98;102770;276;114305;-60
2023/04/12 01:13:32;;;;;;;18.30;13.90;;;;;;;8.47;77.03;99723.52;102725;277;96338;-61
2023/04/12 01:16:15;;;;;;;16.80;12.70;;;;;;;8.44;77.06;99722.14;102745;277;98252;-56
2023/04/12 01:18:56;;;;;;;17.00;12.00;;;;;;;8.39;76.99;99725.20;102714;277;120473;-56
2023/04/12 01:21:41;;;;;;;;;;;;;;;8.38;77.03;99731.31;102518;277;104816;-56
2023/04/12 01:24:34;;;;;;;18.20;13.20;;;;;;;8.36;77.41;99738.74;102729;277;114573;-56
2023/04/12 01:27:27;;;;;;;16.80;13.40;;;;;;;8.38;77.55;99734.59;102730;277;95120;-57
2023/04/12 01:30:13;;;;;;;16.70;12.90;;;;;;;8.34;77.59;99741.29;102697;277;97794;-58
2023/04/12 01:32:53;;;;;;;15.00;12.70;;;;;;;8.35;77.68;99736.51;102748;277;119579;-61
2023/04/12 01:35:36;;;;;;;16.20;12.30;;;;;;;8.35;77.65;99740.31;102696;277;105530;-55
2023/04/12 01:38:11;;;;;;;15.40;11.70;;;;;;;8.39;77.60;99743.73;102731;277;115042;-56
2023/04/12 01:40:48;;;;;;;14.10;12.30;;;;;;;8.47;77.74;99750.75;102715;277;94794;-60
2023/04/12 01:43:27;;;;;;;14.40;12.60;;;;;;;8.54;77.66;99751.11;102762;277;97846;-61
2023/04/12 01:46:07;;;;;;;14.90;12.60;;;;;;;8.57;77.69;99748.40;102764;293;121576;-57
2023/04/12 01:48:49;;;;;;;14.60;12.20;;;;;;;8.62;77.63;99745.30;102742;277;105923;-57
2023/04/12 01:51:35;;;;;;;13.20;11.80;;;;;;;8.63;77.66;99745.73;102688;277;114312;-58
2023/04/12 01:54:20;;;;;;;15.40;12.20;;;;;;;8.62;77.66;99749.91;102700;277;97669;-59
2023/04/12 01:57:02;;;;;;;15.10;12.40;;;;;;;8.66;77.58;99747.66;102757;276;97644;-57
2023/04/12 01:59:43;;;;;;;15.30;12.60;;;;;;;8.69;77.51;99743.34;102713;277;119004;-57
2023/04/12 02:02:20;;;;;;;14.10;12.10;;;;;;;8.72;77.58;99739.34;102780;277;105191;-61
2023/04/12 02:05:06;;;;;;;16.80;13.00;;;;;;;8.76;77.45;99736.40;102729;277;114663;-62
2023/04/12 02:07:51;;;;;;;15.90;13.30;;;;;;;8.76;77.60;99735.91;102771;277;96532;-55
2023/04/12 02:10:39;;;;;;;14.10;12.00;;;;;;;8.79;77.43;99734.47;102662;277;97999;-58
2023/04/12 02:13:22;;;;;;;15.60;12.30;;;;;;;8.80;77.42;99731.27;102719;276;119059;-58
2023/04/12 02:16:02;;;;;;;13.00;11.50;;;;;;;8.82;77.43;99732.98;102768;277;105262;-57
2023/04/12 02:18:42;;;;;;;16.70;13.10;;;;;;;8.84;77.46;99736.71;102703;277;114161;-58
2023/04/12 02:21:20;;;;;;;16.40;13.50;;;;;;;8.83;77.51;99732.61;102750;276;93590;-59
2023/04/12 02:24:05;;;;;;;14.40;12.50;;;;;;;8.84;77.36;99726.53;102763;277;97495;-57
2023/04/12 02:26:44;;;;;;;15.70;12.80;;;;;;;8.83;77.30;99723.70;102722;277;120274;-57
2023/04/12 02:29:27;;;;;;;16.70;11.70;;;;;;;8.82;77.41;99722.23;102739;276;105332;-59
2023/04/12 02:32:06;;;;;;;15.60;12.50;;;;;;;8.83;77.33;99720.14;102526;276;113365;-55
2023/04/12 02:34:50;;;;;;;14.80;13.10;;;;;;;8.78;77.65;99720.75;102532;277;97131;-56
2023/04/12 02:37:31;;;;;;;17.00;13.90;;;;;;;8.80;77.63;99720.52;102705;277;98322;-56
2023/04/12 02:40:11;;;;;;;16.10;13.50;;;;;;;8.77;77.62;99720.84;102704;277;120714;-56
2023/04/12 02:42:51;;;;;;;16.00;13.00;;;;;;;8.77;77.50;99724.85;102771;277;106341;-57
2023/04/12 02:45:31;;;;;;;14.70;13.10;;;;;;;8.79;77.50;99727.10;102712;276;114352;-57
2023/04/12 02:48:15;;;;;;;17.30;12.60;;;;;;;8.75;77.66;99731.00;102705;277;94279;-57
2023/04/12 02:50:54;;;;;;;14.90;13.30;;;;;;;8.79;77.55;99739.70;102758;276;98024;-58
2023/04/12 02:53:34;;;;;;;17.40;13.90;;;;;;;8.75;77.69;99741.28;102719;277;120356;-58
2023/04/12 02:56:10;;;;;;;17.50;13.60;;;;;;;8.72;77.73;99740.39;102762;277;105841;-58
2023/04/12 02:58:54;;;;;;;17.90;13.60;;;;;;;8.72;77.77;99742.38;102755;277;114283;-58
2023/04/12 03:01:38;;;;;;;16.00;13.10;;;;;;;8.69;77.76;99744.58;102737;277;96387;-60
2023/04/12 03:04:13;;;;;;;16.80;13.40;;;;;;;8.71;77.78;99750.39;102723;277;98160;-61
2023/04/12 03:06:55;;;;;;;16.20;13.00;;;;;;;8.71;77.94;99746.30;102786;276;120027;-59
2023/04/12 03:09:41;;;;;;;18.00;14.10;;;;;;;8.71;77.89;99745.23;102707;277;105761;-60
2023/04/12 03:12:26;;;;;;;17.60;14.30;;;;;;;8.69;78.08;99742.19;102732;277;114490;-55
2023/04/12 03:15:06;;;;;;;;;;;;;;;8.66;78.06;99741.33;102725;277;96769;-57
2023/04/12 03:17:48;;;;;;;16.80;12.70;;;;;;;8.62;78.07;99741.16;102728;277;95134;-58
2023/04/12 03:20:27;;;;;;;15.10;12.10;;;;;;;8.67;77.97;99744.68;102707;276;120621;-58
2023/04/12 03:23:04;;;;;;;13.70;12.20;;;;;;;8.66;78.08;99744.39;102743;276;105716;-58
2023/04/12 03:25:46;;;;;;;13.80;12.00;;;;;;;8.64;78.18;99743.63;102762;277;114301;-57
2023/04/12 03:28:26;;;;;;;16.30;13.00;;;;;;;8.64;78.25;99748.27;102748;276;94750;-58
2023/04/12 03:31:09;;;;;;;16.70;13.30;;;;;;;8.64;78.23;99750.91;102731;276;97217;-55
2023/04/12 03:33:51;;;;;;;15.80;13.20;;;;;;;8.68;78.34;99753.27;102735;276;120225;-56
2023/04/12 03:36:30;;;;;;;14.80;12.80;;;;;;;8.68;78.26;99756.39;102743;277;105763;-56
2023/04/12 03:39:06;;;;;;;15.30;11.90;;;;;;;8.64;78.33;99754.35;102759;276;115046;-55
2023/04/12 03:41:43;;;;;;;13.80;12.00;;;;;;;8.69;78.41;99747.91;102774;276;94888;-56
2023/04/12 03:44:24;;;;;;;16.50;12.20;;;;;;;8.69;78.43;99745.65;102765;277;97888;-57
2023/04/12 03:47:06;;;;;;;14.40;12.80;;;;;;;8.70;78.47;99744.80;102730;276;120785;-57
2023/04/12 03:49:43;;;;;;;15.80;12.80;;;;;;;8.68;78.56;99743.91;102700;277;106086;-57
2023/04/12 03:52:27;;;;;;;16.50;12.60;;;;;;;8.72;78.55;99749.20;102715;277;114334;-57
2023/04/12 03:55:06;;;;;;;15.80;12.40;;;;;;;8.74;78.41;99751.50;102731;276;97179;-55
2023/04/12 03:57:48;;;;;;;13.20;11.60;;;;;;;8.74;78.62;99749.89;102455;276;395491;-55
2023/04/12 04:00:27;;;;;;;17.50;12.70;;;;;;;8.77;78.46;99750.34;102646;277;121022;-55
2023/04/12 04:03:11;;;;;;;15.00;13.00;;;;;;;8.80;78.51;99751.43;102697;273;103274;-55
2023/04/12 04:05:56;;;;;;;15.10;11.50;;;;;;;8.79;78.60;99753.78;102711;277;114793;-54
2023/04/12 04:08:37;;;;;;;14.00;12.00;;;;;;;8.77;78.62;99754.80;102729;276;96720;-55
2023/04/12 04:11:27;;;;;;;15.00;12.80;;;;;;;8.72;78.82;99756.72;102662;277;99369;-60
2023/04/12 04:14:09;;;;;;;15.90;12.10;;;;;;;8.71;78.73;99751.80;102768;276;119374;-60
2023/04/12 04:16:52;;;;;;;15.10;12.50;;;;;;;8.75;78.86;99749.37;102761;277;104712;-58
2023/04/12 04:19:31;;;;;;;16.60;12.80;;;;;;;8.74;78.78;99748.98;102721;276;114790;-57
2023/04/12 04:22:08;;;;;;;15.90;12.40;;;;;;;8.74;78.71;99750.21;102752;277;96716;-55
2023/04/12 04:24:47;;;;;;;16.50;12.40;;;;;;;8.72;78.76;99750.74;102723;277;97879;-56
2023/04/12 04:27:29;;;;;;;13.60;10.90;;;;;;;8.74;78.75;99755.23;102737;277;120199;-62
2023/04/12 04:30:08;;;;;;;14.00;10.90;;;;;;;8.77;78.71;99755.42;102761;276;104099;-61
2023/04/12 04:32:50;;;;;;;15.00;11.60;;;;;;;8.78;78.90;99759.49;102737;277;113951;-57
2023/04/12 04:35:32;;;;;;;13.60;11.20;;;;;;;8.79;78.89;99762.45;102753;277;94065;-60
2023/04/12 04:38:19;;;;;;;14.10;11.60;;;;;;;8.85;78.82;99761.92;102742;277;97846;-61
2023/04/12 04:40:58;;;;;;;14.60;12.40;;;;;;;8.87;78.81;99767.04;102771;277;120327;-61
2023/04/12 04:43:41;;;;;;;15.10;11.50;;;;;;;8.89;78.80;99766.97;102637;277;107144;-61
2023/04/12 04:46:25;;;;;;;13.30;11.40;;;;;;;8.95;78.69;99770.41;102682;277;114826;-58
2023/04/12 04:49:05;;;;;;;15.00;11.50;;;;;;;8.94;78.65;99775.30;102608;277;98459;-58
2023/04/12 04:51:44;;;;;;;13.30;11.80;;;;;;;8.99;78.78;99775.89;102772;277;97954;-61
2023/04/12 04:54:26;;;;;;;14.20;11.50;;;;;;;9.05;78.78;99781.70;102730;277;121412;-62
2023/04/12 04:57:06;;;;;;;15.40;11.90;;;;;;;9.07;78.93;99786.60;102730;277;105697;-57
2023/04/12 04:59:49;;;;;;;13.10;11.20;;;;;;;9.07;78.77;99789.33;102730;277;114069;-55
2023/04/12 05:02:30;;;;;;;15.60;11.80;;;;;;;9.09;78.83;99786.00;102744;277;96546;-55
2023/04/12 05:05:05;;;;;;;14.80;11.80;;;;;;;9.13;78.70;99786.20;102728;277;97908;-55
2023/04/12 05:07:43;;;;;;;13.60;11.50;;;;;;;9.17;78.62;99784.23;102692;277;120025;-56
2023/04/12 05:10:21;;;;;;;14.30;11.20;;;;;;;9.22;78.49;99784.48;102719;277;105501;-58
2023/04/12 05:13:04;;;;;;;13.60;11.00;;;;;;;9.24;78.48;99787.04;102752;277;115774;-57
2023/04/12 05:15:46;;;;;;;15.00;12.20;;;;;;;9.25;78.48;99788.86;102741;277;95137;-59
2023/04/12 05:18:26;;;;;;;14.70;11.90;;;;;;;9.23;78.50;99792.02;102713;277;97760;-58
2023/04/12 05:21:06;;;;;;;15.60;12.30;;;;;;;9.25;78.48;99798.06;102722;277;120032;-56
2023/04/12 05:23:47;;;;;;;14.80;12.20;;;;;;;9.29;78.64;99797.33;102753;277;105326;-56
2023/04/12 05:26:24;;;;;;;14.20;12.10;;;;;;;9.29;78.50;99797.57;102784;277;114049;-57
2023/04/12 05:29:01;;;;;;;15.70;12.10;;;;;;;9.32;78.59;99798.48;102726;277;94541;-56
2023/04/12 05:31:41;;;;;;;15.40;11.30;;;;;;;9.35;78.44;99802.30;102785;276;97968;-59
2023/04/12 05:34:29;;;;;;;15.10;12.20;;;;;;;9.40;78.51;99797.98;102779;277;119843;-59
2023/04/12 05:37:08;;;;;;;14.20;11.90;;;;;;;9.42;78.31;99797.16;102771;277;106376;-57
2023/04/12 05:39:56;;;;;;;15.10;11.90;;;;;;;9.45;78.29;99794.15;102739;276;115180;-56
2023/04/12 05:42:36;;;;;;;13.90;12.00;;;;;;;9.51;78.33;99791.12;102751;277;96645;-61
2023/04/12 05:45:14;;;;;;;14.00;11.20;;;;;;;9.57;78.21;99791.58;102770;277;98115;-60
2023/04/12 05:47:53;;;;;;;15.70;11.50;;;;;;;9.66;78.28;99789.55;102768;277;121340;-61
2023/04/12 05:50:37;;;;;;;14.20;11.30;;;;;;;9.68;78.12;99791.02;102801;277;106180;-56
2023/04/12 05:53:13;;;;;;;16.50;12.60;;;;;;;9.70;78.32;99794.98;102729;277;114634;-56
2023/04/12 05:55:53;;;;;;;15.50;12.50;;;;;;;9.74;78.14;99793.10;102775;277;95500;-60
2023/04/12 05:58:33;;;;;;;15.10;12.30;;;;;;;9.81;77.95;99788.11;102748;277;96375;-61
2023/04/12 06:01:10;;;;;;;15.30;12.20;;;;;;;9.89;77.84;99790.77;102744;277;120485;-56
2023/04/12 06:03:53;;;;;;;18.50;13.10;;;;;;;9.92;77.81;99791.45;102651;277;106371;-57
2023/04/12 06:06:30;;;;;;;15.90;13.40;;;;;;;9.93;77.62;99790.42;102769;277;113369;-63
2023/04/12 06:09:06;;;;;;;17.70;14.60;;;;;;;10.02;77.44;99793.04;102739;276;93645;-61
2023/04/12 06:11:48;;;;;;;19.50;15.40;;;;;;;10.06;77.31;99797.09;102786;277;95783;-59
2023/04/12 06:14:32;;;;;;;21.50;17.20;;;;;;;10.06;77.06;99796.12;102687;277;121325;-59
2023/04/12 06:17:18;;;;;;;19.90;17.10;;;;;;;10.02;76.80;99791.05;102809;277;104889;-61
2023/04/12 06:20:07;;;;;;;22.50;17.20;;;;;;;10.03;76.76;99793.29;102718;277;114514;-61
2023/04/12 06:22:47;;;;;;;21.20;17.10;;;;;;;10.02;76.74;99791.21;102758;277;96537;-55
2023/04/12 06:25:23;;;;;;;23.40;18.10;;;;;;;10.07;76.73;99792.94;102768;276;96995;-58
2023/04/12 06:27:58;;;;;;;20.80;16.50;;;;;;;10.07;76.72;99792.44;102806;277;119437;-60
2023/04/12 06:30:44;;;;;;;18.40;15.80;;;;;;;10.04;76.56;99789.82;102780;276;105446;-58
2023/04/12 06:33:22;;;;;;;19.30;15.80;;;;;;;10.12;76.46;99790.27;102744;277;113110;-60
2023/04/12 06:35:59;;;;;;;19.00;15.50;;;;;;;10.22;76.42;99790.12;102796;265;92966;-61
2023/04/12 06:38:37;;;;;;;23.60;18.10;;;;;;;10.28;76.36;99786.98;102760;277;96769;-58
2023/04/12 06:41:21;;;;;;;20.40;16.50;;;;;;;10.34;76.07;99789.84;102816;276;118449;-60
2023/04/12 06:43:59;;;;;;;22.40;16.40;;;;;;;10.33;76.01;99792.55;102756;277;105290;-60
2023/04/12 06:46:43;;;;;;;21.10;16.70;;;;;;;10.29;76.06;99796.46;102772;276;113248;-55
2023/04/12 06:49:28;;;;;;;18.80;15.00;;;;;;;10.24;75.94;99797.02;102718;276;96437;-56
2023/04/12 06:52:04;;;;;;;;;;;;;;;10.32;75.96;99796.86;102800;277;98313;-56
2023/04/12 06:54:44;;;;;;;17.90;14.70;;;;;;;10.42;75.78;99797.46;102760;276;121718;-56
2023/04/12 06:57:24;;;;;;;17.70;15.00;;;;;;;10.49;75.58;99803.88;102767;277;104063;-59
2023/04/12 07:00:07;;;;;;;18.10;14.20;;;;;;;10.46;75.43;99806.11;102741;277;114714;-58
2023/04/12 07:02:53;;;;;;;16.90;15.00;;;;;;;10.39;75.49;99808.67;102746;277;94320;-61
2023/04/12 07:05:33;;;;;;;20.70;16.00;;;;;;;10.34;75.48;99807.16;102743;276;98479;-55
2023/04/12 07:08:10;;;;;;;18.20;14.80;;;;;;;10.28;75.47;99804.10;102730;277;121080;-55
2023/04/12 07:10:44;;;;;;;20.20;14.30;;;;;;;10.22;75.56;99801.05;102785;277;105026;-57
2023/04/12 07:13:24;;;;;;;24.30;15.10;;;;;;;10.23;75.55;99802.52;102747;276;114082;-60
2023/04/12 07:16:05;;;;;;;17.60;14.30;;;;;;;10.34;75.33;99802.09;102758;277;96966;-56
2023/04/12 07:18:45;;;;;;;17.00;14.20;;;;;;;10.46;75.40;99810.19;102779;277;96534;-57
2023/04/12 07:21:29;;;;;;;15.60;13.90;;;;;;;10.47;75.33;99810.65;102750;276;121634;-62
2023/04/12 07:24:09;;;;;;;18.50;16.00;;;;;;;10.49;75.08;99817.21;102741;276;105466;-62
2023/04/12 07:26:49;;;;;;;17.40;14.80;;;;;;;10.57;75.19;99819.98;102720;277;114885;-60
2023/04/12 07:29:33;;;;;;;19.50;14.60;;;;;;;10.56;75.18;99818.94;102711;277;94921;-61
2023/04/12 07:32:10;;;;;;;19.70;15.40;;;;;;;10.49;74.77;99815.77;102773;276;98398;-61
2023/04/12 07:34:51;;;;;;;16.30;14.30;;;;;;;10.49;74.64;99816.69;102748;277;119538;-62
2023/04/12 07:37:31;;;;;;;17.00;14.10;;;;;;;10.50;74.62;99807.38;102788;277;106139;-63
2023/04/12 07:40:09;;;;;;;19.10;14.70;;;;;;;10.48;74.71;99804.75;102757;277;115133;-63
2023/04/12 07:42:47;;;;;;;19.20;14.70;;;;;;;10.59;74.88;99799.84;102776;276;96862;-57
2023/04/12 07:45:22;;;;;;;16.20;13.40;;;;;;;10.81;74.67;99803.42;102734;276;97733;-58
2023/04/12 07:47:58;;;;;;;18.80;15.70;;;;;;;10.97;74.79;99801.03;102756;277;119348;-61
2023/04/12 07:50:37;;;;;;;16.30;14.30;;;;;;;11.11;74.73;99798.89;102800;276;105356;-58
2023/04/12 07:53:27;;;;;;;16.60;14.50;;;;;;;10.97;74.42;99802.82;102760;276;113784;-58
2023/04/12 07:56:05;;;;;;;16.50;14.60;;;;;;;10.88;74.24;99805.10;102738;276;94386;-62
2023/04/12 07:58:51;;;;;;;16.80;14.80;;;;;;;10.84;74.20;99806.16;102784;276;97009;-63
2023/04/12 08:01:32;;;;;;;17.00;14.50;;;;;;;10.80;73.83;99809.69;102781;276;119707;-61
2023/04/12 08:04:12;;;;;;;16.80;14.40;;;;;;;10.76;73.79;99811.56;102701;276;105311;-60
2023/04/12 08:06:55;;;;;;;17.80;14.40;;;;;;;10.72;73.81;99809.80;102716;277;113964;-56
2023/04/12 08:09:35;;;;;;;16.80;14.10;;;;;;;10.80;73.88;99819.05;102725;276;97064;-56
2023/04/12 08:12:15;;;;;;;17.90;13.50;;;;;;;10.86;73.70;99818.94;102748;276;98614;-57
2023/04/12 08:14:58;;;;;;;16.10;14.20;;;;;;;10.85;73.60;99818.18;102749;276;121312;-58
2023/04/12 08:17:41;;;;;;;16.00;13.90;;;;;;;10.78;73.74;99814.02;102759;276;104449;-57
2023/04/12 08:20:25;;;;;;;16.80;13.70;;;;;;;10.86;73.84;99809.95;102716;276;115085;-55
2023/04/12 08:23:04;;;;;;;14.50;12.60;;;;;;;10.96;73.76;99814.12;102746;276;93574;-61
2023/04/12 08:25:43;;;;;;;17.50;14.20;;;;;;;11.01;73.70;99818.67;102783;277;96964;-59
2023/04/12 08:28:21;;;;;;;17.30;14.10;;;;;;;10.95;73.52;99823.23;102770;277;120608;-58
2023/04/12 08:30:58;;;;;;;18.00;13.90;;;;;;;10.82;73.25;99820.59;102787;276;103809;-58
2023/04/12 08:33:38;;;;;;;17.40;14.70;;;;;;;10.72;73.40;99813.91;102721;277;112296;-58
2023/04/12 08:36:13;;;;;;;18.00;14.80;;;;;;;10.63;73.41;99816.09;102765;277;94665;-58
2023/04/12 08:38:51;;;;;;;16.90;14.60;;;;;;;10.68;73.30;99814.31;102770;277;98322;-57
2023/04/12 08:41:33;;;;;;;17.70;14.00;;;;;;;10.72;73.39;99819.45;102707;277;120318;-58
2023/04/12 08:44:08;;;;;;;16.90;14.40;;;;;;;10.75;73.14;99827.60;102762;277;105326;-58
2023/04/12 08:46:53;;;;;;;16.50;13.20;;;;;;;10.72;73.30;99834.16;102768;277;111944;-58
2023/04/12 08:49:33;;;;;;;17.90;14.00;;;;;;;10.67;73.33;99841.95;102750;277;95125;-57
2023/04/12 08:52:15;;;;;;;16.70;13.30;;;;;;;10.67;73.33;99844.20;102796;277;98488;-58
2023/04/12 08:54:58;;;;;;;14.90;12.70;;;;;;;10.65;73.57;99843.74;102735;277;120069;-58
2023/04/12 08:57:41;;;;;;;18.40;13.70;;;;;;;10.68;73.42;99842.76;102802;277;105139;-60
2023/04/12 09:00:30;;;;;;;16.40;14.30;;;;;;;10.74;73.33;99835.87;102753;277;113879;-60
2023/04/12 09:03:13;;;;;;;16.70;14.00;;;;;;;10.76;73.51;99823.81;102802;277;95136;-62
2023/04/12 09:05:51;;;;;;;16.50;14.10;;;;;;;10.93;73.76;99813.73;102756;277;97914;-57
2023/04/12 09:08:35;;;;;;;17.40;14.00;;;;;;;11.29;73.65;99796.55;102758;277;120443;-57
2023/04/12 09:14:26;;;;;;;16.60;13.80;;;;;;;12.68;73.65;99773.10;100422;306;619762;-61
2023/04/12 09:17:07;;;;;;;16.40;13.50;;;;;;;13.10;72.90;99779.91;101799;289;93898;-63
2023/04/12 09:19:46;;;;;;;17.10;13.50;;;;;;;13.26;71.83;99784.80;101812;289;96511;-64
2023/04/12 09:22:38;;;;;;;15.50;12.90;;;;;;;13.19;70.89;99789.61;101853;289;117162;-59
2023/04/12 09:25:35;;;;;;;15.90;13.70;;;;;;;13.11;70.09;99787.55;101758;289;105351;-58
2023/04/12 09:28:35;;;;;;;16.30;13.30;;;;;;;13.15;70.28;99785.96;101493;288;411860;-61
2023/04/12 09:31:23;;;;;;;15.10;13.10;;;;;;;13.20;69.78;99791.10;101765;287;94902;-59
2023/04/12 09:34:09;;;;;;;14.50;12.40;;;;;;;13.13;69.77;99791.27;101775;287;97175;-59
2023/04/12 09:36:44;;;;;;;14.50;12.80;;;;;;;13.18;69.95;99790.28;101783;287;117982;-63
2023/04/12 09:39:30;;;;;;;15.80;12.70;;;;;;;13.45;69.93;99787.16;102275;280;109016;-63
2023/04/12 09:42:15;;;;;;;17.10;12.70;;;;;;;13.82;69.30;99784.71;102415;280;114681;-57
2023/04/12 09:45:18;;;;;;;13.30;11.80;;;;;;;13.89;68.87;99783.09;102404;280;94492;-57
2023/04/12 09:48:01;;;;;;;13.80;12.30;;;;;;;14.03;68.80;99778.75;102338;280;97306;-57
2023/04/12 09:50:43;;;;;;;13.90;11.90;;;;;;;14.16;68.78;99781.19;102366;280;118417;-57
2023/04/12 09:53:22;;;;;;;15.30;12.30;;;;;;;14.34;68.35;99780.77;102427;280;104374;-57
2023/04/12 09:56:03;;;;;;;14.60;12.40;;;;;;;14.42;68.08;99773.66;102403;280;113974;-63
2023/04/12 09:58:41;;;;;;;15.30;11.80;;;;;;;14.32;67.55;99770.48;102381;280;94978;-62
2023/04/12 10:01:19;;;;;;;13.10;10.90;;;;;;;14.14;67.13;99769.67;102462;280;97827;-56
2023/04/12 10:03:55;;;;;;;14.10;12.20;;;;;;;14.08;67.05;99775.02;102398;280;118401;-58
2023/04/12 10:06:41;;;;;;;12.20;11.00;;;;;;;13.88;66.78;99778.88;102455;280;104724;-55
2023/04/12 10:09:27;;;;;;;13.40;11.60;;;;;;;13.68;66.61;99781.42;102379;280;114247;-56
2023/04/12 10:12:07;;;;;;;15.10;11.90;;;;;;;13.81;66.99;99777.96;102423;280;95145;-57
2023/04/12 10:14:46;;;;;;;13.70;11.70;;;;;;;13.93;66.94;99778.33;102365;280;97205;-57
2023/04/12 10:17:25;;;;;;;14.30;11.80;;;;;;;14.02;66.15;99780.02;102384;280;119319;-62
2023/04/12 10:20:05;;;;;;;12.40;10.70;;;;;;;14.00;65.87;99774.86;102381;280;105327;-62
2023/04/12 10:22:43;;;;;;;14.30;11.50;;;;;;;13.93;65.63;99785.60;102417;280;115161;-56
2023/04/12 10:25:22;;;;;;;13.80;12.10;;;;;;;13.92;65.57;99777.88;102381;280;93245;-56
2023/04/12 10:28:13;;;;;;;12.80;11.20;;;;;;;14.00;65.52;99777.83;102379;280;98012;-59
2023/04/12 10:30:51;;;;;;;11.90;10.60;;;;;;;14.05;65.65;99783.41;102409;280;117523;-56
2023/04/12 10:33:31;;;;;;;12.30;11.00;;;;;;;14.23;65.67;99785.15;102386;280;105537;-55
2023/04/12 10:36:11;;;;;;;12.00;10.70;;;;;;;14.32;65.47;99783.80;102429;269;113577;-61
2023/04/12 10:39:11;;;;;;;12.80;11.50;;;;;;;14.42;65.17;99785.40;102370;280;93887;-62
2023/04/12 10:42:25;;;;;;;13.40;11.30;;;;;;;14.48;64.93;99783.48;102432;280;98162;-62
2023/04/12 10:45:35;;;;;;;11.10;10.00;;;;;;;14.60;64.55;99786.16;102423;280;118884;-62
2023/04/12 10:48:31;;;;;;;11.70;9.40;;;;;;;14.58;64.41;99784.65;102399;280;104375;-60
2023/04/12 10:51:24;;;;;;;12.60;10.20;;;;;;;14.56;64.14;99785.20;102415;280;113572;-57
2023/04/12 10:54:35;;;;;;;13.30;10.50;;;;;;;14.65;63.92;99779.40;102369;280;94845;-56
2023/04/12 10:57:46;;;;;;;10.80;9.50;;;;;;;14.97;63.56;99780.27;102391;280;96395;-58
2023/04/12 11:00:25;;;;;;;11.40;10.20;;;;;;;15.28;63.28;99773.02;102425;280;118662;-60
2023/04/12 11:03:12;;;;;;;10.50;9.40;;;;;;;15.25;62.72;99768.93;102390;280;105717;-56
2023/04/12 11:06:07;;;;;;;11.80;10.40;;;;;;;15.36;62.63;99762.88;102241;282;114366;-61
2023/04/12 11:08:49;;;;;;;12.60;11.20;;;;;;;15.68;62.19;99761.21;102701;277;95082;-62
2023/04/12 11:11:34;;;;;;;13.10;10.50;;;;;;;15.94;61.96;99761.58;102700;277;97605;-57
2023/04/12 11:14:20;;;;;;;12.10;10.80;;;;;;;16.08;61.02;99756.05;102641;277;119128;-56
2023/04/12 11:17:35;;;;;;;12.30;10.60;;;;;;;15.87;60.87;99755.67;102597;277;105369;-57
2023/04/12 11:20:14;;;;;;;19.70;12.80;;;;;;;15.70;60.76;99747.34;102619;277;114966;-64
2023/04/12 11:22:54;;;;;;;11.60;10.40;;;;;;;15.89;60.93;99743.95;102619;277;94449;-57
2023/04/12 11:25:31;;;;;;;12.50;11.30;;;;;;;15.98;60.38;99741.95;102650;277;96294;-59
2023/04/12 11:28:09;;;;;;;12.40;11.10;;;;;;;16.16;60.19;99740.90;102625;277;118368;-60
2023/04/12 11:30:59;;;;;;;11.00;9.70;;;;;;;16.23;60.04;99744.35;102616;277;105534;-62
2023/04/12 11:33:44;;;;;;;10.90;9.80;;;;;;;16.28;59.08;99745.70;102690;277;114957;-62
2023/04/12 11:36:19;;;;;;;10.40;9.20;;;;;;;16.22;58.76;99743.19;102626;277;94752;-56
2023/04/12 11:38:56;;;;;;;11.10;9.90;;;;;;;16.09;58.92;99737.50;102634;277;97549;-56
2023/04/12 11:41:32;;;;;;;10.20;9.20;;;;;;;15.76;58.76;99739.89;102699;277;119042;-56
2023/04/12 11:44:09;;;;;;;12.10;9.10;;;;;;;15.63;59.15;99734.15;102667;277;105892;-56
2023/04/12 11:46:48;;;;;;;10.60;9.20;;;;;;;15.74;59.39;99725.95;102659;277;115037;-62
2023/04/12 11:49:26;;;;;;;10.50;9.40;;;;;;;15.82;59.50;99721.13;102634;277;94105;-62
2023/04/12 11:52:07;;;;;;;10.40;9.30;;;;;;;15.80;59.49;99719.95;102616;277;97233;-61
2023/04/12 11:54:46;;;;;;;13.30;9.70;;;;;;;15.97;59.49;99715.05;102637;277;117686;-60
2023/04/12 11:57:25;;;;;;;11.50;8.90;;;;;;;16.16;59.46;99712.55;102681;277;105944;-67
2023/04/12 12:00:06;;;;;;;9.80;8.80;;;;;;;16.20;59.27;99712.27;102600;277;114671;-66
2023/04/12 12:02:45;;;;;;;9.20;8.20;;;;;;;16.21;59.10;99707.65;102692;277;94297;-61
2023/04/12 12:05:22;;;;;;;10.20;9.20;;;;;;;16.19;59.02;99705.65;102636;277;96958;-58
2023/04/12 12:08:04;;;;;;;11.10;9.90;;;;;;;16.19;58.85;99701.50;102664;277;118759;-56
2023/04/12 12:10:40;;;;;;;10.40;9.30;;;;;;;16.16;58.59;99700.19;102655;277;106081;-56
2023/04/12 12:13:18;;;;;;;10.90;9.80;;;;;;;15.90;58.90;99695.70;102600;277;112607;-58
2023/04/12 12:15:57;;;;;;;11.60;9.30;;;;;;;15.91;58.82;99693.16;102664;266;93552;-62
2023/04/12 12:18:32;;;;;;;10.80;9.70;;;;;;;15.86;58.73;99689.89;102654;277;96786;-60
2023/04/12 12:21:10;;;;;;;12.20;11.00;;;;;;;16.13;58.91;99683.27;102651;277;118414;-58
2023/04/12 12:23:46;;;;;;;12.30;11.00;;;;;;;16.40;58.52;99678.80;102607;277;104653;-57
2023/04/12 12:26:29;;;;;;;13.00;11.40;;;;;;;16.53;58.22;99667.02;102683;277;113287;-58
2023/04/12 12:29:05;;;;;;;13.50;11.30;;;;;;;16.67;57.88;99664.20;102673;277;93724;-58